sensor_id;sensor_type;location;lat;lon;timestamp;temperature;humidity
8463;DHT22;4268;52.506;13.462;2023-04-06T00:01:24;4.60;95.80
8463;DHT22;4268;52.506;13.462;2023-04-06T00:03:50;4.80;95.90
8463;DHT22;4268;52.506;13.462;2023-04-06T00:06:16;4.80;96.00
8463;DHT22;4268;52.506;13.462;2023-04-06T00:08:42;4.80;96.00
8463;DHT22;4268;52.506;13.462;2023-04-06T00:11:08;4.80;96.00
8463;DHT22;4268;52.506;13.462;2023-04-06T00:13:33;4.70;96.10
8463;DHT22;4268;52.506;13.462;2023-04-06T00:15:59;5.00;96.20
8463;DHT22;4268;52.506;13.462;2023-04-06T00:18:25;4.60;96.20
8463;DHT22;4268;52.506;13.462;2023-04-06T00:20:50;4.70;96.10
8463;DHT22;4268;52.506;13.462;2023-04-06T00:23:16;4.70;96.30
8463;DHT22;4268;52.506;13.462;2023-04-06T00:25:42;4.70;96.30
8463;DHT22;4268;52.506;13.462;2023-04-06T00:28:07;4.70;96.20
8463;DHT22;4268;52.506;13.462;2023-04-06T00:30:33;4.70;96.30
8463;DHT22;4268;52.506;13.462;2023-04-06T00:32:58;4.70;96.20
8463;DHT22;4268;52.506;13.462;2023-04-06T00:35:24;4.70;96.20
8463;DHT22;4268;52.506;13.462;2023-04-06T00:37:49;4.70;96.20
8463;DHT22;4268;52.506;13.462;2023-04-06T00:40:15;4.40;96.10
8463;DHT22;4268;52.506;13.462;2023-04-06T00:42:41;5.50;96.60
8463;DHT22;4268;52.506;13.462;2023-04-06T00:45:07;4.30;96.10
8463;DHT22;4268;52.506;13.462;2023-04-06T00:47:33;4.70;96.40
8463;DHT22;4268;52.506;13.462;2023-04-06T00:49:59;4.60;96.50
8463;DHT22;4268;52.506;13.462;2023-04-06T00:52:24;4.60;96.60
8463;DHT22;4268;52.506;13.462;2023-04-06T00:54:50;4.20;96.50
8463;DHT22;4268;52.506;13.462;2023-04-06T00:57:16;4.60;96.80
8463;DHT22;4268;52.506;13.462;2023-04-06T00:59:42;4.60;97.00
8463;DHT22;4268;52.506;13.462;2023-04-06T01:02:08;4.60;97.00
8463;DHT22;4268;52.506;13.462;2023-04-06T01:04:34;4.30;97.00
8463;DHT22;4268;52.506;13.462;2023-04-06T01:07:00;4.50;97.20
8463;DHT22;4268;52.506;13.462;2023-04-06T01:09:28;4.50;97.30
8463;DHT22;4268;52.506;13.462;2023-04-06T01:11:54;3.80;97.00
8463;DHT22;4268;52.506;13.462;2023-04-06T01:14:21;4.50;97.40
8463;DHT22;4268;52.506;13.462;2023-04-06T01:16:47;4.50;97.40
8463;DHT22;4268;52.506;13.462;2023-04-06T01:19:13;4.40;97.50
8463;DHT22;4268;52.506;13.462;2023-04-06T01:21:39;4.40;97.60
8463;DHT22;4268;52.506;13.462;2023-04-06T01:24:06;4.40;97.70
8463;DHT22;4268;52.506;13.462;2023-04-06T01:26:32;4.40;97.70
8463;DHT22;4268;52.506;13.462;2023-04-06T01:28:58;5.40;98.20
8463;DHT22;4268;52.506;13.462;2023-04-06T01:31:24;4.40;97.70
8463;DHT22;4268;52.506;13.462;2023-04-06T01:33:49;4.40;97.60
8463;DHT22;4268;52.506;13.462;2023-04-06T01:36:15;4.40;97.80
8463;DHT22;4268;52.506;13.462;2023-04-06T01:38:41;4.40;97.90
8463;DHT22;4268;52.506;13.462;2023-04-06T01:41:07;4.30;97.90
8463;DHT22;4268;52.506;13.462;2023-04-06T01:43:33;4.30;98.10
8463;DHT22;4268;52.506;13.462;2023-04-06T01:45:58;4.30;98.10
8463;DHT22;4268;52.506;13.462;2023-04-06T01:48:26;4.30;98.30
8463;DHT22;4268;52.506;13.462;2023-04-06T01:50:52;4.30;98.40
8463;DHT22;4268;52.506;13.462;2023-04-06T01:53:17;4.20;98.60
8463;DHT22;4268;52.506;13.462;2023-04-06T01:55:43;4.60;98.80
8463;DHT22;4268;52.506;13.462;2023-04-06T01:58:08;4.20;98.80
8463;DHT22;4268;52.506;13.462;2023-04-06T02:00:34;4.30;98.80
8463;DHT22;4268;52.506;13.462;2023-04-06T02:02:59;4.20;99.00
8463;DHT22;4268;52.506;13.462;2023-04-06T02:05:26;4.20;99.00
8463;DHT22;4268;52.506;13.462;2023-04-06T02:07:51;4.10;98.90
8463;DHT22;4268;52.506;13.462;2023-04-06T02:10:17;4.10;98.90
8463;DHT22;4268;52.506;13.462;2023-04-06T02:12:43;4.20;99.00
8463;DHT22;4268;52.506;13.462;2023-04-06T02:15:09;4.10;99.00
8463;DHT22;4268;52.506;13.462;2023-04-06T02:17:35;4.10;99.20
8463;DHT22;4268;52.506;13.462;2023-04-06T02:20:00;4.10;99.10
8463;DHT22;4268;52.506;13.462;2023-04-06T02:22:25;4.10;99.20
8463;DHT22;4268;52.506;13.462;2023-04-06T02:24:51;4.00;99.20
8463;DHT22;4268;52.506;13.462;2023-04-06T02:27:17;4.00;99.50
8463;DHT22;4268;52.506;13.462;2023-04-06T02:29:42;4.00;99.60
8463;DHT22;4268;52.506;13.462;2023-04-06T02:32:08;3.90;99.60
8463;DHT22;4268;52.506;13.462;2023-04-06T02:34:33;3.90;99.80
8463;DHT22;4268;52.506;13.462;2023-04-06T02:36:59;3.90;99.90
8463;DHT22;4268;52.506;13.462;2023-04-06T02:39:24;3.80;99.90
8463;DHT22;4268;52.506;13.462;2023-04-06T02:41:50;3.80;99.90
8463;DHT22;4268;52.506;13.462;2023-04-06T02:44:15;4.90;99.90
8463;DHT22;4268;52.506;13.462;2023-04-06T02:46:41;3.70;99.90
8463;DHT22;4268;52.506;13.462;2023-04-06T02:49:06;3.70;99.90
8463;DHT22;4268;52.506;13.462;2023-04-06T02:51:32;3.60;99.90
8463;DHT22;4268;52.506;13.462;2023-04-06T02:53:58;3.70;99.90
8463;DHT22;4268;52.506;13.462;2023-04-06T02:56:24;3.60;99.90
8463;DHT22;4268;52.506;13.462;2023-04-06T02:58:50;3.60;99.90
8463;DHT22;4268;52.506;13.462;2023-04-06T03:01:15;3.50;99.90
8463;DHT22;4268;52.506;13.462;2023-04-06T03:03:41;3.50;99.90
8463;DHT22;4268;52.506;13.462;2023-04-06T03:06:06;2.80;99.90
8463;DHT22;4268;52.506;13.462;2023-04-06T03:08:32;3.50;99.90
8463;DHT22;4268;52.506;13.462;2023-04-06T03:10:57;3.40;99.90
8463;DHT22;4268;52.506;13.462;2023-04-06T03:13:23;3.40;99.90
8463;DHT22;4268;52.506;13.462;2023-04-06T03:15:48;3.40;99.90
8463;DHT22;4268;52.506;13.462;2023-04-06T03:18:14;3.40;99.90
8463;DHT22;4268;52.506;13.462;2023-04-06T03:20:39;3.40;99.90
8463;DHT22;4268;52.506;13.462;2023-04-06T03:23:05;2.80;99.90
8463;DHT22;4268;52.506;13.462;2023-04-06T03:25:31;3.30;99.90
8463;DHT22;4268;52.506;13.462;2023-04-06T03:27:56;3.20;99.90
8463;DHT22;4268;52.506;13.462;2023-04-06T03:30:22;3.10;99.90
8463;DHT22;4268;52.506;13.462;2023-04-06T03:32:47;3.20;99.90
8463;DHT22;4268;52.506;13.462;2023-04-06T03:35:13;3.10;99.90
8463;DHT22;4268;52.506;13.462;2023-04-06T03:37:38;3.10;99.90
8463;DHT22;4268;52.506;13.462;2023-04-06T03:40:04;3.00;99.90
8463;DHT22;4268;52.506;13.462;2023-04-06T03:42:30;3.10;99.90
8463;DHT22;4268;52.506;13.462;2023-04-06T03:44:56;3.10;99.90
8463;DHT22;4268;52.506;13.462;2023-04-06T03:47:22;3.00;99.90
8463;DHT22;4268;52.506;13.462;2023-04-06T03:49:48;3.00;99.90
8463;DHT22;4268;52.506;13.462;2023-04-06T03:52:14;3.30;99.90
8463;DHT22;4268;52.506;13.462;2023-04-06T03:54:39;3.00;99.90
8463;DHT22;4268;52.506;13.462;2023-04-06T03:57:05;2.00;99.90
8463;DHT22;4268;52.506;13.462;2023-04-06T03:59:30;3.20;99.90
8463;DHT22;4268;52.506;13.462;2023-04-06T04:01:56;2.90;99.90
8463;DHT22;4268;52.506;13.462;2023-04-06T04:04:21;2.90;99.90
8463;DHT22;4268;52.506;13.462;2023-04-06T04:06:47;2.90;99.90
8463;DHT22;4268;52.506;13.462;2023-04-06T04:09:12;3.00;99.90
8463;DHT22;4268;52.506;13.462;2023-04-06T04:11:38;3.60;99.90
8463;DHT22;4268;52.506;13.462;2023-04-06T04:14:03;2.90;99.90
8463;DHT22;4268;52.506;13.462;2023-04-06T04:16:30;2.90;99.90
8463;DHT22;4268;52.506;13.462;2023-04-06T04:18:55;2.60;99.90
8463;DHT22;4268;52.506;13.462;2023-04-06T04:21:21;2.90;99.90
8463;DHT22;4268;52.506;13.462;2023-04-06T04:23:46;2.90;99.90
8463;DHT22;4268;52.506;13.462;2023-04-06T04:26:12;2.90;99.90
8463;DHT22;4268;52.506;13.462;2023-04-06T04:28:37;2.60;99.90
8463;DHT22;4268;52.506;13.462;2023-04-06T04:31:03;2.90;99.90
8463;DHT22;4268;52.506;13.462;2023-04-06T04:33:28;3.70;99.90
8463;DHT22;4268;52.506;13.462;2023-04-06T04:35:54;2.30;99.90
8463;DHT22;4268;52.506;13.462;2023-04-06T04:38:19;3.50;99.90
8463;DHT22;4268;52.506;13.462;2023-04-06T04:40:45;2.70;99.90
8463;DHT22;4268;52.506;13.462;2023-04-06T04:43:10;2.70;99.90
8463;DHT22;4268;52.506;13.462;2023-04-06T04:45:36;2.60;99.90
8463;DHT22;4268;52.506;13.462;2023-04-06T04:48:01;2.60;99.90
8463;DHT22;4268;52.506;13.462;2023-04-06T04:50:27;2.50;99.90
8463;DHT22;4268;52.506;13.462;2023-04-06T04:52:52;2.50;99.90
8463;DHT22;4268;52.506;13.462;2023-04-06T04:55:19;2.40;99.90
8463;DHT22;4268;52.506;13.462;2023-04-06T04:57:44;2.40;99.90
8463;DHT22;4268;52.506;13.462;2023-04-06T05:00:10;2.40;99.90
8463;DHT22;4268;52.506;13.462;2023-04-06T05:02:36;2.40;99.90
8463;DHT22;4268;52.506;13.462;2023-04-06T05:05:01;2.40;99.90
8463;DHT22;4268;52.506;13.462;2023-04-06T05:07:27;2.40;99.90
8463;DHT22;4268;52.506;13.462;2023-04-06T05:09:53;2.40;99.90
8463;DHT22;4268;52.506;13.462;2023-04-06T05:12:19;2.40;99.90
8463;DHT22;4268;52.506;13.462;2023-04-06T05:14:44;2.40;99.90
8463;DHT22;4268;52.506;13.462;2023-04-06T05:17:10;2.60;99.90
8463;DHT22;4268;52.506;13.462;2023-04-06T05:19:36;2.50;99.90
8463;DHT22;4268;52.506;13.462;2023-04-06T05:22:02;2.90;99.90
8463;DHT22;4268;52.506;13.462;2023-04-06T05:24:27;2.50;99.90
8463;DHT22;4268;52.506;13.462;2023-04-06T05:26:53;2.70;99.90
8463;DHT22;4268;52.506;13.462;2023-04-06T05:29:21;2.60;99.90
8463;DHT22;4268;52.506;13.462;2023-04-06T05:31:47;2.70;99.90
8463;DHT22;4268;52.506;13.462;2023-04-06T05:34:12;2.70;99.90
8463;DHT22;4268;52.506;13.462;2023-04-06T05:36:38;2.70;99.90
8463;DHT22;4268;52.506;13.462;2023-04-06T05:39:04;2.70;99.90
8463;DHT22;4268;52.506;13.462;2023-04-06T05:41:29;2.80;99.90
8463;DHT22;4268;52.506;13.462;2023-04-06T05:43:55;2.80;99.90
8463;DHT22;4268;52.506;13.462;2023-04-06T05:46:21;2.80;99.90
8463;DHT22;4268;52.506;13.462;2023-04-06T05:48:46;2.90;99.90
8463;DHT22;4268;52.506;13.462;2023-04-06T05:51:12;2.90;99.90
8463;DHT22;4268;52.506;13.462;2023-04-06T05:53:37;2.90;99.90
8463;DHT22;4268;52.506;13.462;2023-04-06T05:56:03;3.00;99.90
8463;DHT22;4268;52.506;13.462;2023-04-06T05:58:29;3.00;99.90
8463;DHT22;4268;52.506;13.462;2023-04-06T06:00:58;3.10;99.90
8463;DHT22;4268;52.506;13.462;2023-04-06T06:03:24;3.10;99.90
8463;DHT22;4268;52.506;13.462;2023-04-06T06:05:50;3.10;99.90
8463;DHT22;4268;52.506;13.462;2023-04-06T06:08:15;3.20;99.90
8463;DHT22;4268;52.506;13.462;2023-04-06T06:10:41;3.30;99.90
8463;DHT22;4268;52.506;13.462;2023-04-06T06:13:06;3.30;99.90
8463;DHT22;4268;52.506;13.462;2023-04-06T06:15:32;3.40;99.90
8463;DHT22;4268;52.506;13.462;2023-04-06T06:17:57;3.40;99.90
8463;DHT22;4268;52.506;13.462;2023-04-06T06:20:23;3.50;99.90
8463;DHT22;4268;52.506;13.462;2023-04-06T06:22:48;3.60;99.90
8463;DHT22;4268;52.506;13.462;2023-04-06T06:25:14;3.80;99.90
8463;DHT22;4268;52.506;13.462;2023-04-06T06:27:40;4.10;99.90
8463;DHT22;4268;52.506;13.462;2023-04-06T06:30:07;5.30;99.90
8463;DHT22;4268;52.506;13.462;2023-04-06T06:32:33;6.90;99.90
8463;DHT22;4268;52.506;13.462;2023-04-06T06:34:58;8.40;99.90
8463;DHT22;4268;52.506;13.462;2023-04-06T06:37:24;9.90;98.20
8463;DHT22;4268;52.506;13.462;2023-04-06T06:39:49;11.10;94.10
8463;DHT22;4268;52.506;13.462;2023-04-06T06:42:15;12.20;90.80
8463;DHT22;4268;52.506;13.462;2023-04-06T06:44:40;13.00;85.80
8463;DHT22;4268;52.506;13.462;2023-04-06T06:47:06;14.00;82.40
8463;DHT22;4268;52.506;13.462;2023-04-06T06:49:31;14.60;77.50
8463;DHT22;4268;52.506;13.462;2023-04-06T06:51:57;15.00;76.10
8463;DHT22;4268;52.506;13.462;2023-04-06T06:54:22;15.60;73.20
8463;DHT22;4268;52.506;13.462;2023-04-06T06:56:48;15.70;70.50
8463;DHT22;4268;52.506;13.462;2023-04-06T06:59:13;16.30;69.00
8463;DHT22;4268;52.506;13.462;2023-04-06T07:01:39;16.50;67.00
8463;DHT22;4268;52.506;13.462;2023-04-06T07:04:04;16.70;65.00
8463;DHT22;4268;52.506;13.462;2023-04-06T07:06:30;17.00;64.20
8463;DHT22;4268;52.506;13.462;2023-04-06T07:08:55;16.90;62.60
8463;DHT22;4268;52.506;13.462;2023-04-06T07:11:21;17.20;61.10
8463;DHT22;4268;52.506;13.462;2023-04-06T07:13:46;17.10;61.00
8463;DHT22;4268;52.506;13.462;2023-04-06T07:16:12;17.20;59.90
8463;DHT22;4268;52.506;13.462;2023-04-06T07:18:37;17.20;59.20
8463;DHT22;4268;52.506;13.462;2023-04-06T07:21:03;17.20;59.00
8463;DHT22;4268;52.506;13.462;2023-04-06T07:23:28;17.50;58.10
8463;DHT22;4268;52.506;13.462;2023-04-06T07:25:54;17.80;57.20
8463;DHT22;4268;52.506;13.462;2023-04-06T07:28:20;17.90;56.90
8463;DHT22;4268;52.506;13.462;2023-04-06T07:30:45;18.10;57.20
8463;DHT22;4268;52.506;13.462;2023-04-06T07:33:11;17.90;56.50
8463;DHT22;4268;52.506;13.462;2023-04-06T07:35:37;18.00;55.70
8463;DHT22;4268;52.506;13.462;2023-04-06T07:38:03;18.10;55.90
8463;DHT22;4268;52.506;13.462;2023-04-06T07:40:29;18.30;55.00
8463;DHT22;4268;52.506;13.462;2023-04-06T07:42:56;17.80;55.00
8463;DHT22;4268;52.506;13.462;2023-04-06T07:45:22;17.90;54.80
8463;DHT22;4268;52.506;13.462;2023-04-06T07:47:47;18.10;54.20
8463;DHT22;4268;52.506;13.462;2023-04-06T07:50:13;17.90;54.20
8463;DHT22;4268;52.506;13.462;2023-04-06T07:52:39;18.30;54.20
8463;DHT22;4268;52.506;13.462;2023-04-06T07:55:05;18.50;53.30
8463;DHT22;4268;52.506;13.462;2023-04-06T07:57:30;18.50;52.90
8463;DHT22;4268;52.506;13.462;2023-04-06T07:59:55;18.40;52.50
8463;DHT22;4268;52.506;13.462;2023-04-06T08:02:21;18.60;52.60
8463;DHT22;4268;52.506;13.462;2023-04-06T08:04:47;18.90;52.00
8463;DHT22;4268;52.506;13.462;2023-04-06T08:07:13;18.30;51.60
8463;DHT22;4268;52.506;13.462;2023-04-06T08:09:38;17.90;52.20
8463;DHT22;4268;52.506;13.462;2023-04-06T08:12:04;17.80;52.30
8463;DHT22;4268;52.506;13.462;2023-04-06T08:14:29;17.70;52.30
8463;DHT22;4268;52.506;13.462;2023-04-06T08:16:55;17.10;51.70
8463;DHT22;4268;52.506;13.462;2023-04-06T08:19:21;16.20;52.20
8463;DHT22;4268;52.506;13.462;2023-04-06T08:21:46;16.30;53.10
8463;DHT22;4268;52.506;13.462;2023-04-06T08:24:13;15.90;52.00
8463;DHT22;4268;52.506;13.462;2023-04-06T08:26:38;15.40;52.50
8463;DHT22;4268;52.506;13.462;2023-04-06T08:29:04;14.60;52.30
8463;DHT22;4268;52.506;13.462;2023-04-06T08:31:31;13.90;53.60
8463;DHT22;4268;52.506;13.462;2023-04-06T08:33:56;13.00;54.90
8463;DHT22;4268;52.506;13.462;2023-04-06T08:36:22;12.90;55.20
8463;DHT22;4268;52.506;13.462;2023-04-06T08:38:49;12.70;56.20
8463;DHT22;4268;52.506;13.462;2023-04-06T08:41:15;12.30;56.20
8463;DHT22;4268;52.506;13.462;2023-04-06T08:43:46;12.10;56.60
8463;DHT22;4268;52.506;13.462;2023-04-06T08:46:12;11.60;57.60
8463;DHT22;4268;52.506;13.462;2023-04-06T08:51:03;10.90;58.80
8463;DHT22;4268;52.506;13.462;2023-04-06T08:53:29;9.00;59.40
8463;DHT22;4268;52.506;13.462;2023-04-06T08:55:57;10.50;59.20
8463;DHT22;4268;52.506;13.462;2023-04-06T08:58:24;10.40;59.70
8463;DHT22;4268;52.506;13.462;2023-04-06T09:00:50;10.30;59.70
8463;DHT22;4268;52.506;13.462;2023-04-06T09:03:17;10.10;59.70
8463;DHT22;4268;52.506;13.462;2023-04-06T09:05:43;10.00;59.50
8463;DHT22;4268;52.506;13.462;2023-04-06T09:08:09;10.10;60.60
8463;DHT22;4268;52.506;13.462;2023-04-06T09:10:35;10.00;60.00
8463;DHT22;4268;52.506;13.462;2023-04-06T09:13:08;10.10;60.10
8463;DHT22;4268;52.506;13.462;2023-04-06T09:15:34;10.10;61.00
8463;DHT22;4268;52.506;13.462;2023-04-06T09:18:00;10.20;61.20
8463;DHT22;4268;52.506;13.462;2023-04-06T09:20:26;10.10;60.80
8463;DHT22;4268;52.506;13.462;2023-04-06T09:22:53;10.20;60.60
8463;DHT22;4268;52.506;13.462;2023-04-06T09:25:21;10.30;60.30
8463;DHT22;4268;52.506;13.462;2023-04-06T09:27:48;10.20;59.50
8463;DHT22;4268;52.506;13.462;2023-04-06T09:30:15;10.30;59.60
8463;DHT22;4268;52.506;13.462;2023-04-06T09:32:49;10.30;59.60
8463;DHT22;4268;52.506;13.462;2023-04-06T09:35:15;9.90;59.80
8463;DHT22;4268;52.506;13.462;2023-04-06T09:37:44;9.70;60.00
8463;DHT22;4268;52.506;13.462;2023-04-06T09:40:11;9.80;61.00
8463;DHT22;4268;52.506;13.462;2023-04-06T09:42:37;10.00;60.20
8463;DHT22;4268;52.506;13.462;2023-04-06T09:45:03;10.30;60.20
8463;DHT22;4268;52.506;13.462;2023-04-06T09:47:30;10.40;59.00
8463;DHT22;4268;52.506;13.462;2023-04-06T09:49:58;10.50;58.70
8463;DHT22;4268;52.506;13.462;2023-04-06T09:52:37;10.50;57.90
8463;DHT22;4268;52.506;13.462;2023-04-06T09:55:05;10.30;57.80
8463;DHT22;4268;52.506;13.462;2023-04-06T09:57:55;10.40;57.90
8463;DHT22;4268;52.506;13.462;2023-04-06T10:00:23;10.40;58.40
8463;DHT22;4268;52.506;13.462;2023-04-06T10:02:58;10.40;59.00
8463;DHT22;4268;52.506;13.462;2023-04-06T10:08:02;10.60;59.20
8463;DHT22;4268;52.506;13.462;2023-04-06T10:10:31;10.60;57.30
8463;DHT22;4268;52.506;13.462;2023-04-06T10:12:58;11.50;57.60
8463;DHT22;4268;52.506;13.462;2023-04-06T10:15:25;10.60;55.20
8463;DHT22;4268;52.506;13.462;2023-04-06T10:17:52;10.40;54.60
8463;DHT22;4268;52.506;13.462;2023-04-06T10:20:29;10.30;54.50
8463;DHT22;4268;52.506;13.462;2023-04-06T10:23:10;10.60;55.40
8463;DHT22;4268;52.506;13.462;2023-04-06T10:25:39;10.70;54.90
8463;DHT22;4268;52.506;13.462;2023-04-06T10:28:07;10.90;54.80
8463;DHT22;4268;52.506;13.462;2023-04-06T10:30:42;10.80;53.70
8463;DHT22;4268;52.506;13.462;2023-04-06T10:33:15;10.70;53.80
8463;DHT22;4268;52.506;13.462;2023-04-06T10:35:41;10.60;53.80
8463;DHT22;4268;52.506;13.462;2023-04-06T10:38:07;10.80;53.80
8463;DHT22;4268;52.506;13.462;2023-04-06T10:40:36;10.50;53.80
8463;DHT22;4268;52.506;13.462;2023-04-06T10:43:13;11.30;53.80
8463;DHT22;4268;52.506;13.462;2023-04-06T10:45:40;11.60;53.30
8463;DHT22;4268;52.506;13.462;2023-04-06T10:48:36;12.00;53.30
8463;DHT22;4268;52.506;13.462;2023-04-06T10:51:14;12.00;52.00
8463;DHT22;4268;52.506;13.462;2023-04-06T10:53:47;11.80;51.80
8463;DHT22;4268;52.506;13.462;2023-04-06T10:56:17;11.60;50.80
8463;DHT22;4268;52.506;13.462;2023-04-06T10:58:47;11.60;52.00
8463;DHT22;4268;52.506;13.462;2023-04-06T11:01:17;11.70;52.60
8463;DHT22;4268;52.506;13.462;2023-04-06T11:03:45;11.70;53.30
8463;DHT22;4268;52.506;13.462;2023-04-06T11:06:10;11.80;53.70
8463;DHT22;4268;52.506;13.462;2023-04-06T11:08:36;11.80;53.50
8463;DHT22;4268;52.506;13.462;2023-04-06T11:11:10;11.70;52.90
8463;DHT22;4268;52.506;13.462;2023-04-06T11:13:53;11.80;53.30
8463;DHT22;4268;52.506;13.462;2023-04-06T11:16:27;11.80;53.10
8463;DHT22;4268;52.506;13.462;2023-04-06T11:18:58;11.80;52.70
8463;DHT22;4268;52.506;13.462;2023-04-06T11:21:41;11.90;52.90
8463;DHT22;4268;52.506;13.462;2023-04-06T11:24:16;12.00;52.60
8463;DHT22;4268;52.506;13.462;2023-04-06T11:26:44;12.10;51.30
8463;DHT22;4268;52.506;13.462;2023-04-06T11:29:12;12.40;51.60
8463;DHT22;4268;52.506;13.462;2023-04-06T11:31:45;12.70;51.20
8463;DHT22;4268;52.506;13.462;2023-04-06T11:34:25;12.90;50.50
8463;DHT22;4268;52.506;13.462;2023-04-06T11:36:55;13.10;50.00
8463;DHT22;4268;52.506;13.462;2023-04-06T11:39:23;13.00;49.50
8463;DHT22;4268;52.506;13.462;2023-04-06T11:41:54;13.00;49.50
8463;DHT22;4268;52.506;13.462;2023-04-06T11:46:57;12.80;49.50
8463;DHT22;4268;52.506;13.462;2023-04-06T11:49:27;12.70;49.10
8463;DHT22;4268;52.506;13.462;2023-04-06T11:51:53;12.60;49.90
8463;DHT22;4268;52.506;13.462;2023-04-06T11:54:32;12.40;49.70
8463;DHT22;4268;52.506;13.462;2023-04-06T11:56:58;12.20;50.60
8463;DHT22;4268;52.506;13.462;2023-04-06T11:59:26;12.00;51.60
8463;DHT22;4268;52.506;13.462;2023-04-06T12:01:52;11.90;51.70
8463;DHT22;4268;52.506;13.462;2023-04-06T12:04:18;11.70;52.20
8463;DHT22;4268;52.506;13.462;2023-04-06T12:06:44;11.80;52.00
8463;DHT22;4268;52.506;13.462;2023-04-06T12:09:10;11.90;51.90
8463;DHT22;4268;52.506;13.462;2023-04-06T12:11:35;12.20;52.20
8463;DHT22;4268;52.506;13.462;2023-04-06T12:14:01;12.50;51.60
8463;DHT22;4268;52.506;13.462;2023-04-06T12:16:33;12.80;52.00
8463;DHT22;4268;52.506;13.462;2023-04-06T12:18:59;12.90;50.00
8463;DHT22;4268;52.506;13.462;2023-04-06T12:21:26;13.10;50.00
8463;DHT22;4268;52.506;13.462;2023-04-06T12:23:52;13.40;50.00
8463;DHT22;4268;52.506;13.462;2023-04-06T12:26:17;13.10;49.60
8463;DHT22;4268;52.506;13.462;2023-04-06T12:28:43;12.80;49.10
8463;DHT22;4268;52.506;13.462;2023-04-06T12:31:15;12.70;49.10
8463;DHT22;4268;52.506;13.462;2023-04-06T12:33:41;12.80;50.20
8463;DHT22;4268;52.506;13.462;2023-04-06T12:36:15;12.90;49.40
8463;DHT22;4268;52.506;13.462;2023-04-06T12:38:44;13.10;49.00
8463;DHT22;4268;52.506;13.462;2023-04-06T12:41:11;13.30;49.10
8463;DHT22;4268;52.506;13.462;2023-04-06T12:43:37;13.20;49.80
8463;DHT22;4268;52.506;13.462;2023-04-06T12:46:02;12.90;50.40
8463;DHT22;4268;52.506;13.462;2023-04-06T12:48:28;12.70;50.70
8463;DHT22;4268;52.506;13.462;2023-04-06T12:51:02;12.90;51.20
8463;DHT22;4268;52.506;13.462;2023-04-06T12:53:27;12.40;51.50
8463;DHT22;4268;52.506;13.462;2023-04-06T12:55:56;12.20;51.00
8463;DHT22;4268;52.506;13.462;2023-04-06T12:58:22;12.10;51.20
8463;DHT22;4268;52.506;13.462;2023-04-06T13:00:49;12.00;52.20
8463;DHT22;4268;52.506;13.462;2023-04-06T13:03:19;12.00;52.80
8463;DHT22;4268;52.506;13.462;2023-04-06T13:05:46;12.20;52.70
8463;DHT22;4268;52.506;13.462;2023-04-06T13:08:12;12.20;52.50
8463;DHT22;4268;52.506;13.462;2023-04-06T13:10:42;12.20;52.20
8463;DHT22;4268;52.506;13.462;2023-04-06T13:13:08;12.20;52.20
8463;DHT22;4268;52.506;13.462;2023-04-06T13:15:34;12.00;52.00
8463;DHT22;4268;52.506;13.462;2023-04-06T13:18:01;11.90;52.00
8463;DHT22;4268;52.506;13.462;2023-04-06T13:20:27;12.20;52.30
8463;DHT22;4268;52.506;13.462;2023-04-06T13:22:53;12.10;51.70
8463;DHT22;4268;52.506;13.462;2023-04-06T13:25:18;12.00;52.00
8463;DHT22;4268;52.506;13.462;2023-04-06T13:27:44;11.90;52.60
8463;DHT22;4268;52.506;13.462;2023-04-06T13:30:11;11.90;52.00
8463;DHT22;4268;52.506;13.462;2023-04-06T13:32:37;12.00;52.90
8463;DHT22;4268;52.506;13.462;2023-04-06T13:35:03;12.10;52.50
8463;DHT22;4268;52.506;13.462;2023-04-06T13:37:29;12.30;52.90
8463;DHT22;4268;52.506;13.462;2023-04-06T13:39:54;12.50;52.90
8463;DHT22;4268;52.506;13.462;2023-04-06T13:42:20;12.40;52.80
8463;DHT22;4268;52.506;13.462;2023-04-06T13:44:45;12.30;52.30
8463;DHT22;4268;52.506;13.462;2023-04-06T13:47:12;12.30;52.40
8463;DHT22;4268;52.506;13.462;2023-04-06T13:49:38;12.20;52.20
8463;DHT22;4268;52.506;13.462;2023-04-06T13:52:03;12.10;52.40
8463;DHT22;4268;52.506;13.462;2023-04-06T13:54:29;12.00;53.00
8463;DHT22;4268;52.506;13.462;2023-04-06T13:56:54;11.90;52.80
8463;DHT22;4268;52.506;13.462;2023-04-06T13:59:20;11.90;53.50
8463;DHT22;4268;52.506;13.462;2023-04-06T14:01:46;11.80;52.80
8463;DHT22;4268;52.506;13.462;2023-04-06T14:04:12;12.50;53.40
8463;DHT22;4268;52.506;13.462;2023-04-06T14:06:38;11.10;52.50
8463;DHT22;4268;52.506;13.462;2023-04-06T14:09:03;11.50;53.00
8463;DHT22;4268;52.506;13.462;2023-04-06T14:11:29;11.50;52.90
8463;DHT22;4268;52.506;13.462;2023-04-06T14:13:55;11.50;52.60
8463;DHT22;4268;52.506;13.462;2023-04-06T14:16:23;11.70;52.40
8463;DHT22;4268;52.506;13.462;2023-04-06T14:18:48;11.70;53.10
8463;DHT22;4268;52.506;13.462;2023-04-06T14:21:14;11.50;52.80
8463;DHT22;4268;52.506;13.462;2023-04-06T14:23:40;11.30;52.90
8463;DHT22;4268;52.506;13.462;2023-04-06T14:26:07;11.30;53.30
8463;DHT22;4268;52.506;13.462;2023-04-06T14:28:34;11.30;53.00
8463;DHT22;4268;52.506;13.462;2023-04-06T14:31:01;11.30;52.70
8463;DHT22;4268;52.506;13.462;2023-04-06T14:33:28;11.10;52.80
8463;DHT22;4268;52.506;13.462;2023-04-06T14:35:55;11.10;53.00
8463;DHT22;4268;52.506;13.462;2023-04-06T14:38:21;11.00;53.30
8463;DHT22;4268;52.506;13.462;2023-04-06T14:40:47;11.00;53.10
8463;DHT22;4268;52.506;13.462;2023-04-06T14:43:12;11.00;53.00
8463;DHT22;4268;52.506;13.462;2023-04-06T14:45:38;11.10;52.60
8463;DHT22;4268;52.506;13.462;2023-04-06T14:48:04;11.20;52.80
8463;DHT22;4268;52.506;13.462;2023-04-06T14:50:32;11.40;53.30
8463;DHT22;4268;52.506;13.462;2023-04-06T14:52:58;11.50;53.50
8463;DHT22;4268;52.506;13.462;2023-04-06T14:55:24;12.20;53.00
8463;DHT22;4268;52.506;13.462;2023-04-06T14:57:49;11.30;52.60
8463;DHT22;4268;52.506;13.462;2023-04-06T15:00:15;11.30;53.50
8463;DHT22;4268;52.506;13.462;2023-04-06T15:02:41;11.30;53.30
8463;DHT22;4268;52.506;13.462;2023-04-06T15:05:08;11.50;53.80
8463;DHT22;4268;52.506;13.462;2023-04-06T15:07:34;11.40;53.00
8463;DHT22;4268;52.506;13.462;2023-04-06T15:10:00;11.50;53.00
8463;DHT22;4268;52.506;13.462;2023-04-06T15:12:25;11.40;53.00
8463;DHT22;4268;52.506;13.462;2023-04-06T15:14:51;11.40;52.70
8463;DHT22;4268;52.506;13.462;2023-04-06T15:17:16;11.40;52.90
8463;DHT22;4268;52.506;13.462;2023-04-06T15:19:42;11.40;52.20
8463;DHT22;4268;52.506;13.462;2023-04-06T15:22:07;11.50;53.10
8463;DHT22;4268;52.506;13.462;2023-04-06T15:24:33;11.40;52.80
8463;DHT22;4268;52.506;13.462;2023-04-06T15:26:58;11.40;53.20
8463;DHT22;4268;52.506;13.462;2023-04-06T15:29:24;11.50;53.70
8463;DHT22;4268;52.506;13.462;2023-04-06T15:31:51;11.50;53.50
8463;DHT22;4268;52.506;13.462;2023-04-06T15:34:17;11.40;52.80
8463;DHT22;4268;52.506;13.462;2023-04-06T15:36:43;11.40;52.70
8463;DHT22;4268;52.506;13.462;2023-04-06T15:39:09;11.30;53.00
8463;DHT22;4268;52.506;13.462;2023-04-06T15:41:34;11.30;53.20
8463;DHT22;4268;52.506;13.462;2023-04-06T15:44:00;11.30;53.30
8463;DHT22;4268;52.506;13.462;2023-04-06T15:46:26;11.30;53.40
8463;DHT22;4268;52.506;13.462;2023-04-06T15:48:52;11.30;53.30
8463;DHT22;4268;52.506;13.462;2023-04-06T15:51:17;11.30;53.10
8463;DHT22;4268;52.506;13.462;2023-04-06T15:53:43;11.20;52.80
8463;DHT22;4268;52.506;13.462;2023-04-06T15:56:09;11.20;53.50